Time;durP1;ratioP1;P1;durP2;ratioP2;P2;SDS_P1;SDS_P2;PMS_P1;PMS_P2;Temp;Humidity;BMP_temperature;BMP_pressure;BME280_temperature;BME280_humidity;BME280_pressure;Samples;Min_cycle;Max_cycle;Signal;HPM_P1;HPM_P2
2021/03/12 00:00:13;;;;;;;38.85;29.77;;;;;;;23.82;19.28;97130.00;5055645;28;20093;-58
2021/03/12 00:02:40;;;;;;;39.45;30.05;;;;;;;23.81;19.24;97128.41;5062098;28;20036;-57
2021/03/12 00:05:08;;;;;;;38.13;29.35;;;;;;;23.79;19.35;97131.63;5064645;28;20111;-55
2021/03/12 00:07:33;;;;;;;37.38;28.55;;;;;;;23.78;19.38;97132.03;5064930;28;20028;-52
2021/03/12 00:09:58;;;;;;;38.17;29.25;;;;;;;23.76;19.43;97142.84;5065344;28;20381;-58
2021/03/12 00:12:24;;;;;;;36.40;27.48;;;;;;;23.75;19.57;97139.28;5067781;28;20059;-51
2021/03/12 00:14:49;;;;;;;34.00;26.77;;;;;;;23.74;19.40;97145.28;5064320;28;20142;-52
2021/03/12 00:17:15;;;;;;;33.72;25.85;;;;;;;23.74;19.49;97151.69;5042623;28;20036;-52
2021/03/12 00:19:40;;;;;;;35.05;26.40;;;;;;;23.74;19.40;97151.69;5056431;28;20039;-53
2021/03/12 00:22:05;;;;;;;36.92;28.13;;;;;;;23.75;19.21;97161.66;5056574;28;20435;-52
2021/03/12 00:24:31;;;;;;;36.03;27.77;;;;;;;23.73;19.42;97144.50;5064806;28;20040;-59
2021/03/12 00:26:59;;;;;;;33.08;26.10;;;;;;;23.75;19.35;97142.06;5064402;28;20064;-58
2021/03/12 00:29:25;;;;;;;34.13;26.73;;;;;;;23.77;19.46;97159.25;5063978;28;20028;-58
2021/03/12 00:31:50;;;;;;;34.08;25.40;;;;;;;23.79;19.48;97182.03;5070339;28;20488;-57
2021/03/12 00:34:16;;;;;;;32.60;26.73;;;;;;;23.84;19.60;97168.78;5064470;28;20107;-58
2021/03/12 00:36:41;;;;;;;33.53;24.45;;;;;;;23.87;19.65;97160.34;5064322;28;20423;-57
2021/03/12 00:39:06;;;;;;;33.22;24.17;;;;;;;23.92;19.54;97161.88;5056664;28;20109;-71
2021/03/12 00:41:32;;;;;;;30.27;24.15;;;;;;;23.97;19.54;97146.63;5053863;28;20757;-62
2021/03/12 00:43:58;;;;;;;31.85;24.13;;;;;;;24.00;19.43;97129.81;5058902;28;20808;-61
2021/03/12 00:46:25;;;;;;;30.25;24.00;;;;;;;24.03;19.49;97114.19;5063617;28;20097;-63
2021/03/12 00:48:50;;;;;;;28.65;23.02;;;;;;;24.08;19.47;97100.50;5065226;28;20485;-60
2021/03/12 00:51:16;;;;;;;29.80;23.58;;;;;;;24.12;19.54;97089.25;5062986;28;20051;-59
2021/03/12 00:53:41;;;;;;;27.13;20.95;;;;;;;24.14;19.35;97103.63;5062779;28;20034;-60
2021/03/12 00:56:07;;;;;;;26.48;20.90;;;;;;;24.17;19.51;97102.00;5063553;28;20024;-60
2021/03/12 00:58:32;;;;;;;26.17;21.20;;;;;;;24.19;19.51;97110.78;5063179;28;20024;-60
2021/03/12 01:00:59;;;;;;;27.00;21.23;;;;;;;24.20;19.54;97115.94;5055195;28;20029;-59
2021/03/12 01:03:24;;;;;;;25.80;20.60;;;;;;;24.23;19.68;97122.72;5053817;28;20024;-57
2021/03/12 01:05:50;;;;;;;26.35;20.08;;;;;;;24.24;19.40;97124.31;5059945;28;20036;-59
2021/03/12 01:08:15;;;;;;;25.83;20.60;;;;;;;24.27;19.71;97128.28;5063292;28;20162;-60
2021/03/12 01:10:41;;;;;;;24.17;19.40;;;;;;;24.29;19.63;97129.44;5064421;28;20021;-60
2021/03/12 01:13:07;;;;;;;25.27;19.40;;;;;;;24.30;19.56;97117.00;5063058;28;20430;-61
2021/03/12 01:15:33;;;;;;;22.83;18.60;;;;;;;24.31;19.57;97123.41;5063253;28;20028;-61
2021/03/12 01:17:59;;;;;;;22.17;18.33;;;;;;;24.32;19.48;97120.19;5065524;28;20386;-65
2021/03/12 01:20:28;;;;;;;22.20;17.67;;;;;;;24.33;19.64;97123.78;5059343;28;20023;-63
2021/03/12 01:22:59;;;;;;;21.20;18.23;;;;;;;24.36;19.63;97118.13;5055982;28;20027;-61
2021/03/12 01:25:28;;;;;;;22.58;18.15;;;;;;;24.37;19.65;97116.13;5056337;28;20110;-57
2021/03/12 01:27:53;;;;;;;22.67;18.30;;;;;;;24.40;19.63;97106.06;5062964;28;20111;-58
2021/03/12 01:30:31;;;;;;;21.30;17.23;;;;;;;24.43;19.60;97105.22;5062823;28;20115;-59
2021/03/12 01:32:57;;;;;;;21.27;16.48;;;;;;;24.45;19.59;97095.19;5061792;28;20051;-60
2021/03/12 01:35:22;;;;;;;22.50;16.92;;;;;;;24.47;19.53;97103.19;5063252;28;20025;-59
2021/03/12 01:37:48;;;;;;;20.08;15.57;;;;;;;24.49;19.79;97106.34;5063397;28;20110;-59
2021/03/12 01:40:17;;;;;;;21.35;16.73;;;;;;;24.50;19.68;97105.13;5044498;28;20031;-59
2021/03/12 01:42:42;;;;;;;19.50;16.58;;;;;;;24.51;19.73;97103.91;5054117;28;20043;-59
2021/03/12 01:45:13;;;;;;;20.08;15.52;;;;;;;24.53;19.70;97101.47;5054415;28;20528;-59
2021/03/12 01:47:39;;;;;;;19.38;15.13;;;;;;;24.54;19.70;97097.47;5060140;28;20047;-59
2021/03/12 01:50:06;;;;;;;19.42;14.93;;;;;;;24.56;19.81;97089.44;5066006;28;20397;-59
2021/03/12 01:52:32;;;;;;;19.75;15.35;;;;;;;24.58;19.39;97089.00;5063751;28;20384;-60
2021/03/12 01:54:58;;;;;;;18.13;14.60;;;;;;;24.58;19.62;97081.38;5062899;28;20036;-60
2021/03/12 01:57:23;;;;;;;18.17;14.13;;;;;;;24.58;19.63;97095.41;5062644;28;20017;-59
2021/03/12 01:59:49;;;;;;;20.42;14.85;;;;;;;24.59;19.63;97088.59;5046748;28;20040;-60
2021/03/12 02:02:15;;;;;;;17.10;14.02;;;;;;;24.60;19.68;97084.56;5058657;28;20020;-60
2021/03/12 02:04:42;;;;;;;16.52;13.52;;;;;;;24.61;19.59;97069.34;5053175;28;20020;-59
2021/03/12 02:07:07;;;;;;;16.75;13.23;;;;;;;24.61;19.67;97071.31;5054313;28;20029;-60
2021/03/12 02:09:35;;;;;;;18.73;13.48;;;;;;;24.59;19.70;97094.19;5059806;28;20020;-59
2021/03/12 02:12:16;;;;;;;15.57;12.63;;;;;;;24.59;19.41;97088.59;5065747;28;20024;-60
2021/03/12 02:14:52;;;;;;;15.57;12.88;;;;;;;24.59;19.61;97073.75;5068929;28;20071;-59
2021/03/12 02:17:25;;;;;;;17.95;13.30;;;;;;;24.58;19.64;97058.16;5066701;28;20206;-60
2021/03/12 02:20:06;;;;;;;18.48;15.02;;;;;;;24.56;19.48;97046.59;5066324;28;20113;-58
2021/03/12 02:22:35;;;;;;;17.80;14.48;;;;;;;24.52;19.35;97032.63;5065806;28;20370;-60
2021/03/12 02:25:14;;;;;;;16.08;13.48;;;;;;;24.49;19.43;97048.28;5024521;28;20040;-59
2021/03/12 02:27:43;;;;;;;16.38;13.23;;;;;;;24.47;19.50;97047.13;5039428;28;20036;-59
2021/03/12 02:30:09;;;;;;;17.80;13.48;;;;;;;24.45;19.46;97060.78;5065132;28;20090;-59
2021/03/12 02:32:44;;;;;;;15.75;12.35;;;;;;;24.44;19.69;97062.78;5065501;28;20027;-60
2021/03/12 02:35:16;;;;;;;16.65;12.30;;;;;;;24.44;19.57;97050.78;5065379;28;20021;-60
2021/03/12 02:37:43;;;;;;;16.27;12.10;;;;;;;24.43;19.81;97043.59;5066044;28;20139;-60
2021/03/12 02:40:09;;;;;;;18.73;12.82;;;;;;;24.42;19.77;97056.81;5061771;28;20036;-60
2021/03/12 02:42:40;;;;;;;15.50;12.15;;;;;;;24.43;19.82;97050.00;5066808;28;20034;-59
2021/03/12 02:45:08;;;;;;;13.32;11.45;;;;;;;24.44;19.75;97045.97;5060069;28;20053;-60
2021/03/12 02:47:33;;;;;;;13.27;11.10;;;;;;;24.44;19.69;97062.78;5057168;28;20032;-60
2021/03/12 02:49:59;;;;;;;14.77;11.13;;;;;;;24.46;19.81;97063.13;5040369;28;20547;-61
2021/03/12 02:52:25;;;;;;;13.43;11.40;;;;;;;24.47;19.80;97061.13;5066230;28;20797;-63
2021/03/12 02:54:52;;;;;;;14.30;10.95;;;;;;;24.48;19.96;97062.72;5066097;28;20029;-62
2021/03/12 02:57:19;;;;;;;13.35;10.63;;;;;;;24.50;19.85;97063.09;5047223;28;20028;-59
2021/03/12 02:59:47;;;;;;;12.93;10.70;;;;;;;24.50;19.91;97044.25;5065152;28;20134;-59
2021/03/12 03:02:13;;;;;;;12.95;10.25;;;;;;;24.51;19.91;97040.25;5065380;28;20543;-59
2021/03/12 03:04:39;;;;;;;14.00;10.43;;;;;;;24.51;19.96;97045.84;5064670;28;20012;-60
2021/03/12 03:07:08;;;;;;;13.25;10.20;;;;;;;24.51;19.86;97045.06;5056059;28;20029;-60
2021/03/12 03:09:36;;;;;;;13.23;10.25;;;;;;;24.52;20.04;97066.28;5056873;28;20043;-60
2021/03/12 03:12:02;;;;;;;12.20;9.57;;;;;;;24.52;19.81;97083.09;5064633;28;20033;-59
2021/03/12 03:14:31;;;;;;;14.77;10.25;;;;;;;24.50;19.96;97069.47;5065549;28;20069;-59
2021/03/12 03:16:59;;;;;;;12.53;10.20;;;;;;;24.50;19.82;97058.28;5065290;28;20044;-59
2021/03/12 03:19:26;;;;;;;11.75;9.57;;;;;;;24.49;19.92;97062.28;5065940;28;20388;-58
2021/03/12 03:21:51;;;;;;;12.75;9.75;;;;;;;24.49;20.12;97072.72;5028867;28;20056;-59
2021/03/12 03:24:17;;;;;;;12.23;9.32;;;;;;;24.48;20.18;97083.13;5065488;28;20123;-59
2021/03/12 03:26:42;;;;;;;13.63;9.98;;;;;;;24.48;19.92;97096.34;5060846;28;20395;-60
2021/03/12 03:29:08;;;;;;;13.20;9.55;;;;;;;24.46;19.96;97102.38;5056134;28;20077;-59
2021/03/12 03:31:35;;;;;;;12.45;8.88;;;;;;;24.47;20.01;97101.16;5058296;28;20048;-59
2021/03/12 03:34:00;;;;;;;10.82;8.98;;;;;;;24.46;20.13;97087.56;5066390;28;20024;-59
2021/03/12 03:36:26;;;;;;;11.68;8.35;;;;;;;24.49;20.13;97086.72;5065259;28;20039;-59
2021/03/12 03:38:51;;;;;;;11.07;8.95;;;;;;;24.48;19.97;97093.56;5065921;28;20252;-59
2021/03/12 03:41:18;;;;;;;12.65;8.98;;;;;;;24.48;20.14;97094.31;5063923;28;20399;-58
2021/03/12 03:43:49;;;;;;;12.68;9.02;;;;;;;24.47;19.96;97109.56;5065390;28;20023;-59
2021/03/12 03:46:15;;;;;;;12.07;8.73;;;;;;;24.50;20.07;97116.34;5064490;28;20053;-58
2021/03/12 03:48:43;;;;;;;11.50;8.70;;;;;;;24.50;20.24;97119.91;5056676;28;20070;-58
2021/03/12 03:51:12;;;;;;;11.43;8.15;;;;;;;24.52;20.12;97133.53;5036751;28;20067;-58
2021/03/12 03:53:40;;;;;;;10.02;8.13;;;;;;;24.53;20.11;97124.69;5043151;28;20036;-58
2021/03/12 03:56:07;;;;;;;11.23;8.30;;;;;;;24.54;20.06;97136.69;5066241;28;20260;-59
2021/03/12 03:58:36;;;;;;;11.98;8.60;;;;;;;24.56;20.09;97130.66;5065313;28;20017;-59
2021/03/12 04:01:02;;;;;;;10.10;7.90;;;;;;;24.58;20.32;97134.66;5065405;28;20111;-59
2021/03/12 04:03:28;;;;;;;9.27;7.70;;;;;;;24.59;20.22;97139.03;5064937;28;20056;-58
2021/03/12 04:05:55;;;;;;;9.30;7.40;;;;;;;24.60;20.21;97140.63;5044837;28;20028;-59
2021/03/12 04:08:22;;;;;;;11.50;7.63;;;;;;;24.63;20.20;97147.38;5061498;28;20035;-59
2021/03/12 04:10:49;;;;;;;9.30;7.82;;;;;;;24.64;20.26;97149.78;5055855;28;20029;-59
2021/03/12 04:13:15;;;;;;;9.02;7.43;;;;;;;24.66;19.91;97150.13;5055538;28;20618;-59
2021/03/12 04:15:41;;;;;;;10.07;7.35;;;;;;;24.68;20.08;97150.50;5063489;28;20043;-59
2021/03/12 04:18:06;;;;;;;11.30;7.40;;;;;;;24.71;20.20;97153.66;5063489;28;20032;-58
2021/03/12 04:20:32;;;;;;;8.25;7.10;;;;;;;24.72;19.94;97155.28;5063122;28;20040;-59
2021/03/12 04:22:58;;;;;;;8.95;6.88;;;;;;;24.74;20.14;97145.25;5064277;28;20028;-58
2021/03/12 04:25:24;;;;;;;8.60;6.70;;;;;;;24.76;20.10;97147.59;5064003;28;20029;-60
2021/03/12 04:27:50;;;;;;;9.48;7.35;;;;;;;24.74;20.02;97139.63;5063364;28;20032;-58
2021/03/12 04:30:16;;;;;;;9.57;7.18;;;;;;;24.76;20.17;97133.59;5058118;28;20020;-58
2021/03/12 04:32:42;;;;;;;8.85;7.20;;;;;;;24.77;20.13;97135.19;5055040;28;20087;-59
2021/03/12 04:35:09;;;;;;;7.25;6.55;;;;;;;24.76;20.22;97128.78;5057973;28;20107;-58
2021/03/12 04:37:36;;;;;;;12.45;6.82;;;;;;;24.76;20.12;97120.38;5063927;28;20038;-59
2021/03/12 04:40:05;;;;;;;10.18;6.80;;;;;;;24.76;20.37;97108.38;5063710;28;20063;-59
2021/03/12 04:42:32;;;;;;;8.55;6.75;;;;;;;24.76;20.10;97111.16;5063309;28;20034;-58
2021/03/12 04:44:58;;;;;;;7.75;6.78;;;;;;;24.76;20.07;97108.38;5064503;28;20603;-58
2021/03/12 04:47:24;;;;;;;8.00;6.57;;;;;;;24.74;20.21;97103.19;5065094;28;20476;-59
2021/03/12 04:49:50;;;;;;;8.07;6.78;;;;;;;24.73;20.33;97104.41;5063483;28;20101;-58
2021/03/12 04:52:17;;;;;;;8.82;6.32;;;;;;;24.72;20.18;97110.44;5054851;28;20025;-58
2021/03/12 04:54:45;;;;;;;8.20;6.40;;;;;;;24.71;20.01;97106.00;5054822;28;20044;-59
2021/03/12 04:57:12;;;;;;;7.32;6.05;;;;;;;24.69;20.40;97114.84;5061125;28;20028;-59
2021/03/12 04:59:37;;;;;;;7.18;6.18;;;;;;;24.67;20.38;97106.84;5064024;28;20039;-58
2021/03/12 05:02:03;;;;;;;7.10;6.13;;;;;;;24.65;20.33;97098.09;5064689;28;20032;-59
2021/03/12 05:04:30;;;;;;;7.15;6.25;;;;;;;24.65;20.40;97095.31;5063882;28;20118;-58
2021/03/12 05:06:55;;;;;;;7.38;5.90;;;;;;;24.63;20.23;97108.94;5062891;28;20413;-58
2021/03/12 05:09:21;;;;;;;8.40;6.25;;;;;;;24.63;20.15;97122.97;5062769;28;20016;-59
2021/03/12 05:11:46;;;;;;;8.60;5.97;;;;;;;24.63;20.39;97120.16;5061033;28;20031;-59
2021/03/12 05:14:14;;;;;;;7.50;6.30;;;;;;;24.63;20.46;97125.75;5035663;28;20110;-58
2021/03/12 05:16:40;;;;;;;7.88;6.38;;;;;;;24.63;20.47;97131.38;5055549;28;20078;-59
2021/03/12 05:19:05;;;;;;;7.72;5.85;;;;;;;24.64;20.63;97146.16;5063274;28;20036;-59
2021/03/12 05:21:32;;;;;;;7.10;6.05;;;;;;;24.65;20.49;97154.16;5062509;28;20024;-59
2021/03/12 05:23:58;;;;;;;6.63;5.22;;;;;;;24.67;20.45;97182.53;5063722;28;20036;-58
2021/03/12 05:26:23;;;;;;;7.07;6.10;;;;;;;24.68;20.36;97189.72;5063329;28;20033;-59
2021/03/12 05:28:49;;;;;;;7.30;5.90;;;;;;;24.70;20.58;97189.31;5063991;28;20036;-60
2021/03/12 05:31:14;;;;;;;7.68;5.93;;;;;;;24.70;20.61;97188.50;5080608;28;20216;-58
2021/03/12 05:33:40;;;;;;;7.25;5.63;;;;;;;24.72;20.51;97205.75;5079362;28;20095;-59
2021/03/12 05:36:05;;;;;;;6.68;5.63;;;;;;;24.73;20.43;97215.75;5080027;28;20034;-59
2021/03/12 05:38:30;;;;;;;8.07;6.20;;;;;;;24.75;20.52;97213.31;5081581;28;20134;-58
2021/03/12 05:40:56;;;;;;;8.07;5.45;;;;;;;24.74;20.63;97212.53;5079692;28;20033;-58
2021/03/12 05:43:23;;;;;;;7.93;5.80;;;;;;;24.75;20.55;97219.72;5080696;28;20051;-59
2021/03/12 05:45:51;;;;;;;8.30;6.13;;;;;;;24.76;20.55;97220.50;5066663;28;20044;-58
2021/03/12 05:48:17;;;;;;;7.22;5.38;;;;;;;24.73;20.84;97205.34;5084117;28;20086;-58
2021/03/12 05:50:43;;;;;;;6.70;5.65;;;;;;;24.72;20.65;97203.75;5084689;28;20020;-59
2021/03/12 05:53:08;;;;;;;7.80;5.97;;;;;;;24.72;20.81;97226.16;5085098;28;20035;-60
2021/03/12 05:55:34;;;;;;;7.88;5.85;;;;;;;24.71;20.61;97227.34;5083704;28;20036;-58
2021/03/12 05:57:59;;;;;;;8.23;6.05;;;;;;;24.71;20.83;97234.97;5084836;28;20024;-59
2021/03/12 06:00:26;;;;;;;9.52;6.43;;;;;;;24.71;20.67;97232.16;5084720;28;20073;-59
2021/03/12 06:02:51;;;;;;;6.38;5.43;;;;;;;24.70;20.76;97238.97;5083245;28;20020;-59
2021/03/12 06:05:16;;;;;;;7.22;5.40;;;;;;;24.69;20.79;97249.41;5085441;28;20082;-58
2021/03/12 06:07:42;;;;;;;6.53;5.38;;;;;;;24.70;20.97;97258.59;5084254;28;20472;-60
2021/03/12 06:10:09;;;;;;;8.32;5.68;;;;;;;24.68;20.80;97265.41;5083363;28;20042;-59
2021/03/12 06:12:35;;;;;;;6.30;5.38;;;;;;;24.68;20.88;97268.22;5085049;28;20031;-58
2021/03/12 06:15:02;;;;;;;7.53;5.55;;;;;;;24.68;20.95;97262.63;5083535;28;20358;-58
2021/03/12 06:17:40;;;;;;;7.55;5.47;;;;;;;24.69;20.87;97269.03;5083388;28;20434;-59
2021/03/12 06:20:10;;;;;;;6.97;5.75;;;;;;;24.67;21.06;97280.66;5084512;28;20036;-59
2021/03/12 06:22:36;;;;;;;8.82;5.90;;;;;;;24.68;20.79;97279.44;5082826;28;20370;-58
2021/03/12 06:25:12;;;;;;;8.32;5.72;;;;;;;24.70;21.12;97283.81;5083805;28;20471;-58
2021/03/12 06:27:37;;;;;;;8.00;5.53;;;;;;;24.69;20.85;97283.06;5082643;28;20036;-59
2021/03/12 06:30:03;;;;;;;8.82;6.05;;;;;;;24.70;20.82;97293.03;5083890;28;20036;-59
2021/03/12 06:32:43;;;;;;;7.47;5.63;;;;;;;24.70;21.03;97297.84;5084773;28;20426;-59
2021/03/12 06:35:11;;;;;;;8.88;5.88;;;;;;;24.72;21.05;97303.88;5084595;28;20032;-60
2021/03/12 06:37:36;;;;;;;8.65;5.78;;;;;;;24.73;21.16;97294.22;5082868;28;20027;-59
2021/03/12 06:40:26;;;;;;;9.82;6.60;;;;;;;24.73;21.23;97297.84;5084064;28;20028;-59
2021/03/12 06:43:11;;;;;;;8.30;5.88;;;;;;;24.75;21.13;97298.22;5073633;28;20043;-60
2021/03/12 06:45:57;;;;;;;7.47;5.65;;;;;;;24.77;21.17;97311.81;5082892;28;20113;-60
2021/03/12 06:48:30;;;;;;;9.00;5.72;;;;;;;24.78;21.22;97303.00;5066781;28;20415;-60
2021/03/12 06:50:55;;;;;;;8.52;5.57;;;;;;;24.80;21.00;97323.00;5084730;28;20499;-59
2021/03/12 06:53:21;;;;;;;8.48;5.78;;;;;;;24.82;21.09;97325.38;5083447;28;20016;-59
2021/03/12 06:55:47;;;;;;;9.07;5.63;;;;;;;24.83;20.94;97329.75;5083199;28;20023;-60
2021/03/12 06:58:12;;;;;;;8.63;5.55;;;;;;;24.85;21.03;97323.75;5084366;28;20016;-60
2021/03/12 07:00:38;;;;;;;7.93;5.40;;;;;;;24.87;20.87;97332.50;5082742;28;20028;-60
2021/03/12 07:03:32;;;;;;;7.80;5.45;;;;;;;24.89;21.07;97330.88;5083533;28;20388;-61
2021/03/12 07:06:05;;;;;;;9.50;5.90;;;;;;;24.89;20.75;97330.06;5082645;28;20032;-56
2021/03/12 07:08:44;;;;;;;10.25;6.68;;;;;;;24.87;20.63;97341.72;5082414;28;20051;-57
2021/03/12 07:11:18;;;;;;;10.95;6.95;;;;;;;24.88;20.89;97337.72;5084147;28;20023;-51
2021/03/12 07:13:44;;;;;;;11.30;7.13;;;;;;;24.85;20.52;97340.56;5083347;28;20674;-50
2021/03/12 07:16:09;;;;;;;10.43;6.78;;;;;;;24.80;20.47;97334.22;5082581;28;20114;-52
2021/03/12 07:18:35;;;;;;;12.30;7.20;;;;;;;24.77;20.06;97331.44;5084144;28;20108;-53
2021/03/12 07:21:01;;;;;;;12.20;7.22;;;;;;;24.72;20.44;97329.91;5082510;28;20037;-53
2021/03/12 07:23:27;;;;;;;11.48;6.68;;;;;;;24.68;20.30;97334.72;5082605;28;20053;-53
2021/03/12 07:25:54;;;;;;;11.95;7.25;;;;;;;24.64;20.15;97336.78;5065699;28;20024;-52
2021/03/12 07:28:26;;;;;;;11.60;7.20;;;;;;;24.61;20.36;97337.59;5088565;28;20103;-48
2021/03/12 07:30:54;;;;;;;11.50;7.40;;;;;;;24.58;20.16;97342.06;5068715;28;20067;-58
2021/03/12 07:33:24;;;;;;;11.80;6.97;;;;;;;24.55;20.18;97336.47;5074055;28;20032;-53
2021/03/12 07:35:51;;;;;;;12.05;7.25;;;;;;;24.50;20.32;97354.56;5074244;28;20028;-52
2021/03/12 07:38:17;;;;;;;10.15;6.72;;;;;;;24.46;20.33;97348.97;5076592;28;20033;-50
2021/03/12 07:40:44;;;;;;;12.13;7.20;;;;;;;24.43;20.22;97368.63;5086313;28;20020;-52
2021/03/12 07:43:09;;;;;;;12.85;7.60;;;;;;;24.40;20.39;97361.88;5081819;28;20036;-51
2021/03/12 07:45:37;;;;;;;11.82;7.15;;;;;;;24.36;20.34;97372.31;5073465;28;20159;-51
2021/03/12 07:48:03;;;;;;;11.45;7.38;;;;;;;24.33;20.29;97367.53;5073852;28;20040;-53
2021/03/12 07:50:33;;;;;;;12.65;7.28;;;;;;;24.31;20.36;97376.34;5090126;28;20030;-51
2021/03/12 07:53:00;;;;;;;11.77;8.35;;;;;;;24.28;20.27;97390.41;5090166;28;20392;-51
2021/03/12 07:55:35;;;;;;;14.18;7.85;;;;;;;24.26;20.59;97393.59;5073216;28;20047;-51
2021/03/12 07:58:04;;;;;;;14.55;8.40;;;;;;;24.24;20.85;97401.66;5073377;28;20439;-54
2021/03/12 08:00:30;;;;;;;13.57;8.40;;;;;;;24.22;20.99;97385.25;5079202;28;20037;-56
2021/03/12 08:03:01;;;;;;;16.70;9.10;;;;;;;24.21;20.96;97406.06;5077944;28;20036;-55
2021/03/12 08:05:47;;;;;;;22.45;9.40;;;;;;;24.18;21.19;97414.50;5085699;28;20031;-57
2021/03/12 08:08:38;;;;;;;22.30;9.73;;;;;;;24.14;21.23;97417.31;5090925;28;20082;-55
2021/03/12 08:11:38;;;;;;;57.75;31.20;;;;;;;24.10;21.28;97422.16;5086980;28;20074;-57
2021/03/12 08:14:09;;;;;;;46.95;27.15;;;;;;;24.05;21.41;97426.19;5090050;28;20309;-48
2021/03/12 08:16:36;;;;;;;32.95;19.60;;;;;;;24.04;21.42;97421.03;5091826;28;20055;-58
2021/03/12 08:19:28;;;;;;;36.75;21.30;;;;;;;24.02;21.63;97427.03;5091634;28;20074;-59
2021/03/12 08:21:53;;;;;;;37.38;22.23;;;;;;;24.01;21.59;97427.44;5091952;28;20024;-55
2021/03/12 08:24:45;;;;;;;37.83;22.98;;;;;;;23.99;21.62;97432.66;5092777;28;20521;-55
2021/03/12 08:27:11;;;;;;;37.95;23.42;;;;;;;23.97;21.90;97432.25;5093315;28;20111;-59
2021/03/12 08:29:38;;;;;;;32.95;21.00;;;;;;;23.96;21.73;97434.25;5093321;28;20496;-59
2021/03/12 08:32:36;;;;;;;35.42;21.48;;;;;;;23.96;21.89;97453.06;5093578;28;20035;-56
2021/03/12 08:35:04;;;;;;;35.50;21.95;;;;;;;23.93;21.74;97452.66;5093578;28;20028;-57
2021/03/12 08:37:30;;;;;;;32.92;20.98;;;;;;;23.92;22.01;97456.69;5093341;28;20457;-55
2021/03/12 08:40:13;;;;;;;30.75;20.13;;;;;;;23.91;21.97;97480.28;5093233;28;20035;-56
2021/03/12 08:43:03;;;;;;;29.40;19.30;;;;;;;23.89;22.19;97484.69;5093525;28;20099;-56
2021/03/12 08:45:47;;;;;;;32.42;20.20;;;;;;;23.87;22.34;97487.91;5093264;28;20050;-50
2021/03/12 08:48:27;;;;;;;33.45;19.95;;;;;;;23.88;22.46;97494.28;5093186;28;20039;-52
2021/03/12 08:50:53;;;;;;;31.95;21.00;;;;;;;23.88;22.51;97499.88;5093467;28;20032;-51
2021/03/12 08:53:20;;;;;;;34.72;21.02;;;;;;;23.87;22.80;97510.31;5093079;28;20059;-52
2021/03/12 08:55:52;;;;;;;31.10;20.58;;;;;;;23.86;22.72;97513.50;5093160;28;20034;-51
2021/03/12 08:58:18;;;;;;;30.92;20.92;;;;;;;23.86;22.69;97511.50;5092555;28;20464;-53
2021/03/12 09:00:46;;;;;;;31.88;20.83;;;;;;;23.86;22.82;97500.31;5074068;28;20028;-52
2021/03/12 09:03:18;;;;;;;30.88;21.70;;;;;;;23.87;22.83;97510.31;5092951;28;20096;-49
2021/03/12 09:05:45;;;;;;;31.48;20.58;;;;;;;23.88;22.91;97508.28;5093070;28;20567;-53
2021/03/12 09:08:13;;;;;;;29.92;19.65;;;;;;;23.88;22.90;97509.09;5092263;28;20106;-49
2021/03/12 09:10:40;;;;;;;27.83;20.35;;;;;;;23.90;22.93;97517.06;5092980;28;20020;-49
2021/03/12 09:13:20;;;;;;;28.45;19.75;;;;;;;23.90;22.88;97512.28;5093050;28;20028;-47
2021/03/12 09:15:47;;;;;;;26.25;19.10;;;;;;;23.92;22.76;97517.47;5092784;28;20024;-50
2021/03/12 09:18:19;;;;;;;26.85;19.45;;;;;;;23.92;22.64;97517.47;5091833;28;20029;-48
2021/03/12 09:20:58;;;;;;;30.27;19.83;;;;;;;23.94;22.87;97529.06;5090691;28;20055;-48
2021/03/12 09:23:41;;;;;;;29.73;20.75;;;;;;;23.94;22.80;97529.88;5090966;28;20028;-48
2021/03/12 09:26:10;;;;;;;27.33;20.88;;;;;;;23.93;22.73;97531.06;5090849;28;20024;-52
2021/03/12 09:28:36;;;;;;;29.97;20.20;;;;;;;23.96;22.79;97539.88;5091144;28;20032;-49
2021/03/12 09:31:03;;;;;;;26.83;19.00;;;;;;;23.97;22.67;97542.25;5090791;28;20024;-54
2021/03/12 09:33:38;;;;;;;26.63;19.33;;;;;;;23.97;22.73;97544.25;5072710;28;20427;-51
2021/03/12 09:36:21;;;;;;;27.70;20.67;;;;;;;23.96;22.63;97551.06;5092375;28;20020;-52
2021/03/12 09:38:47;;;;;;;25.10;19.02;;;;;;;23.94;22.55;97551.47;5092794;28;20055;-49
2021/03/12 09:41:19;;;;;;;25.23;18.60;;;;;;;23.93;22.59;97559.06;5074589;28;20586;-48
2021/03/12 09:43:57;;;;;;;24.00;18.23;;;;;;;23.92;22.72;97556.66;5092648;28;20034;-51
2021/03/12 09:46:50;;;;;;;23.35;18.15;;;;;;;23.91;22.49;97566.28;5092385;28;20420;-50
2021/03/12 09:49:29;;;;;;;23.10;17.67;;;;;;;23.88;22.54;97567.91;5088228;28;20044;-49
2021/03/12 09:51:58;;;;;;;25.02;18.00;;;;;;;23.86;22.56;97575.09;5074520;28;20465;-50
2021/03/12 09:54:27;;;;;;;19.85;16.25;;;;;;;23.84;22.55;97586.72;5092513;28;20017;-49
2021/03/12 09:56:54;;;;;;;20.25;15.70;;;;;;;23.83;22.44;97598.34;5092552;28;20028;-48
2021/03/12 09:59:23;;;;;;;20.70;15.73;;;;;;;23.81;22.55;97600.75;5092522;28;20575;-50
2021/03/12 10:01:49;;;;;;;19.90;15.27;;;;;;;23.80;22.44;97605.53;5092377;28;20020;-49
2021/03/12 10:04:26;;;;;;;21.00;15.35;;;;;;;23.78;22.45;97605.94;5092426;28;20030;-50
2021/03/12 10:07:16;;;;;;;19.88;14.88;;;;;;;23.78;22.45;97610.72;5092261;28;20052;-49
2021/03/12 10:09:46;;;;;;;20.63;15.40;;;;;;;23.77;22.26;97614.75;5079312;28;20038;-49
2021/03/12 10:12:23;;;;;;;16.90;13.40;;;;;;;23.74;22.46;97605.16;5092107;28;20032;-49
2021/03/12 10:15:08;;;;;;;18.25;13.82;;;;;;;23.73;22.37;97614.75;5092168;28;20028;-48
2021/03/12 10:17:38;;;;;;;16.13;13.20;;;;;;;23.72;22.32;97617.94;5092294;28;20032;-48
2021/03/12 10:20:16;;;;;;;16.77;12.93;;;;;;;23.71;22.38;97614.38;5091963;28;20115;-50
2021/03/12 10:22:43;;;;;;;17.83;12.50;;;;;;;23.71;22.43;97607.97;5092271;28;20028;-49
2021/03/12 10:25:19;;;;;;;16.20;13.20;;;;;;;23.69;22.27;97611.19;5091865;28;20020;-48
2021/03/12 10:27:56;;;;;;;16.98;12.57;;;;;;;23.66;22.39;97606.38;5092004;28;20020;-49
2021/03/12 10:30:29;;;;;;;13.98;11.30;;;;;;;23.66;22.39;97619.56;5093209;28;20084;-48
2021/03/12 10:32:57;;;;;;;15.63;11.23;;;;;;;23.63;22.14;97619.19;5095490;28;20385;-51
2021/03/12 10:35:22;;;;;;;16.42;12.07;;;;;;;23.63;22.27;97621.19;5095621;28;20020;-48
2021/03/12 10:37:49;;;;;;;13.63;10.52;;;;;;;23.62;22.32;97616.78;5095379;28;20126;-48
2021/03/12 10:40:16;;;;;;;15.35;11.02;;;;;;;23.60;22.31;97613.59;5095197;28;20068;-48
2021/03/12 10:42:42;;;;;;;13.70;10.13;;;;;;;23.58;22.28;97619.63;5095359;28;20102;-48
2021/03/12 10:45:29;;;;;;;12.98;10.13;;;;;;;23.58;22.28;97616.00;5095271;28;20024;-52
2021/03/12 10:48:05;;;;;;;11.27;8.90;;;;;;;23.57;22.25;97620.00;5095073;28;20070;-48
2021/03/12 10:50:34;;;;;;;12.95;9.27;;;;;;;23.56;22.32;97612.81;5095567;28;20424;-48
2021/03/12 10:53:08;;;;;;;13.70;9.07;;;;;;;23.57;22.08;97615.22;5095354;28;20031;-47
2021/03/12 10:55:35;;;;;;;11.52;9.15;;;;;;;23.57;22.19;97615.22;5095284;28;20016;-50
2021/03/12 10:58:01;;;;;;;12.27;8.95;;;;;;;23.58;22.28;97616.00;5095300;28;20102;-48
2021/03/12 11:00:29;;;;;;;12.15;9.32;;;;;;;23.57;22.28;97615.22;5095155;28;20032;-50
2021/03/12 11:03:01;;;;;;;12.77;9.10;;;;;;;23.59;22.29;97620.41;5095430;28;20025;-48
2021/03/12 11:05:26;;;;;;;13.40;8.68;;;;;;;23.58;22.36;97628.00;5095111;28;20544;-54
2021/03/12 11:07:52;;;;;;;13.65;8.90;;;;;;;23.56;22.28;97621.19;5095000;28;20099;-50
2021/03/12 11:10:20;;;;;;;14.07;9.18;;;;;;;23.57;22.15;97618.03;5094946;28;20063;-50
2021/03/12 11:12:48;;;;;;;12.20;8.38;;;;;;;23.58;22.10;97611.22;5095002;28;20024;-52
2021/03/12 11:15:19;;;;;;;13.70;8.90;;;;;;;23.58;22.34;97616.81;5094991;28;20154;-51
2021/03/12 11:17:46;;;;;;;12.13;8.15;;;;;;;23.59;22.19;97609.19;5094597;28;20114;-48
2021/03/12 11:20:14;;;;;;;12.52;8.32;;;;;;;23.60;22.12;97619.19;5094698;28;20035;-49
2021/03/12 11:22:40;;;;;;;12.90;8.13;;;;;;;23.59;22.17;97623.19;5094778;28;20081;-49
2021/03/12 11:25:06;;;;;;;12.57;7.88;;;;;;;23.60;22.14;97616.41;5094766;28;20375;-49
2021/03/12 11:27:32;;;;;;;13.18;8.15;;;;;;;23.58;22.17;97621.59;5094513;28;20031;-48
2021/03/12 11:30:08;;;;;;;12.18;7.85;;;;;;;23.57;22.23;97617.19;5094670;28;20012;-49
2021/03/12 11:32:33;;;;;;;12.43;7.72;;;;;;;23.56;22.16;97633.22;5094259;28;20020;-49